createdAt,value
2022-10-01T00:01:18.888Z,9.80
2022-10-01T00:03:49.393Z,14.20
2022-10-01T00:06:20.682Z,9.52
2022-10-01T00:08:50.783Z,13.60
2022-10-01T00:11:21.171Z,11.48
2022-10-01T00:13:51.576Z,10.02
2022-10-01T00:16:21.798Z,13.50
2022-10-01T00:18:49.906Z,14.48
2022-10-01T00:21:29.956Z,15.60
2022-10-01T00:24:04.800Z,12.77
2022-10-01T00:26:37.365Z,11.43
2022-10-01T00:29:13.971Z,12.32
2022-10-01T00:31:41.407Z,16.40
2022-10-01T00:34:11.360Z,10.70
2022-10-01T00:36:38.609Z,15.73
2022-10-01T00:39:05.935Z,19.00
2022-10-01T00:41:35.141Z,17.70
2022-10-01T00:44:24.591Z,15.98
2022-10-01T00:46:54.116Z,13.23
2022-10-01T00:49:26.782Z,16.38
2022-10-01T00:52:02.383Z,18.55
2022-10-01T00:54:49.471Z,15.50
2022-10-01T00:57:20.791Z,22.05
2022-10-01T00:59:50.194Z,18.20
2022-10-01T01:02:17.825Z,16.52
2022-10-01T01:04:45.285Z,16.42
2022-10-01T01:07:14.027Z,16.98
2022-10-01T01:09:47.601Z,10.80
2022-10-01T01:12:32.072Z,13.25
2022-10-01T01:15:18.106Z,9.55
2022-10-01T01:17:53.235Z,15.23
2022-10-01T01:20:42.830Z,17.30
2022-10-01T01:23:15.760Z,19.65
2022-10-01T01:25:50.291Z,17.08
2022-10-01T01:28:27.562Z,14.82
2022-10-01T01:31:01.149Z,13.85
2022-10-01T01:33:31.248Z,13.90
2022-10-01T01:36:06.993Z,13.63
2022-10-01T01:38:40.549Z,14.50
2022-10-01T01:41:09.306Z,15.50
2022-10-01T01:43:41.950Z,13.10
2022-10-01T01:46:18.278Z,13.90
2022-10-01T01:48:51.236Z,14.50
2022-10-01T01:51:31.811Z,13.70
2022-10-01T01:53:59.426Z,14.88
2022-10-01T01:56:26.678Z,17.92
2022-10-01T01:58:57.511Z,12.95
2022-10-01T02:01:41.036Z,15.52
2022-10-01T02:04:36.030Z,11.25
2022-10-01T02:07:21.341Z,13.82
2022-10-01T02:10:00.960Z,17.40
2022-10-01T02:12:53.782Z,12.48
2022-10-01T02:16:01.504Z,11.82
2022-10-01T02:21:21.563Z,8.73
2022-10-01T02:23:58.240Z,15.45
2022-10-01T02:26:29.118Z,12.75
2022-10-01T02:29:00.979Z,12.68
2022-10-01T02:31:30.786Z,13.18
2022-10-01T02:34:00.713Z,11.32
2022-10-01T02:36:31.787Z,11.80
2022-10-01T02:39:00.897Z,15.23
2022-10-01T02:44:25.319Z,9.63
2022-10-01T02:46:59.437Z,10.43
2022-10-01T02:49:30.887Z,11.23
2022-10-01T02:52:24.159Z,9.77
2022-10-01T02:55:00.437Z,16.15
2022-10-01T02:57:28.950Z,18.65
2022-10-01T03:00:09.113Z,11.10
2022-10-01T03:02:36.476Z,10.45
2022-10-01T03:05:05.245Z,16.65
2022-10-01T03:07:35.750Z,22.95
2022-10-01T03:10:07.975Z,23.83
2022-10-01T03:12:35.902Z,15.20
2022-10-01T03:15:04.581Z,14.93
2022-10-01T03:17:31.820Z,16.33
2022-10-01T03:19:58.757Z,11.60
2022-10-01T03:22:26.293Z,11.02
2022-10-01T03:24:53.954Z,15.10
2022-10-01T03:27:22.067Z,10.38
2022-10-01T03:29:49.669Z,17.67
2022-10-01T03:32:17.840Z,16.42
2022-10-01T03:34:45.028Z,12.85
2022-10-01T03:37:12.444Z,14.73
2022-10-01T03:39:40.333Z,13.57
2022-10-01T03:42:07.439Z,14.70
2022-10-01T03:44:35.431Z,15.80
2022-10-01T03:47:02.472Z,17.15
2022-10-01T03:49:29.896Z,15.15
2022-10-01T03:51:57.979Z,14.30
2022-10-01T03:54:26.512Z,17.02
2022-10-01T03:56:53.514Z,18.67
2022-10-01T03:59:21.395Z,21.77
2022-10-01T04:01:48.840Z,16.60
2022-10-01T04:04:19.061Z,14.98
2022-10-01T04:06:48.864Z,15.13
2022-10-01T04:09:15.869Z,18.63
2022-10-01T04:11:43.250Z,14.40
2022-10-01T04:14:11.203Z,12.35
2022-10-01T04:16:40.501Z,19.08
2022-10-01T04:19:08.247Z,11.80
2022-10-01T04:21:42.497Z,13.32
2022-10-01T04:24:09.716Z,13.68
2022-10-01T04:26:39.134Z,13.52
2022-10-01T04:29:06.191Z,15.45
2022-10-01T04:31:35.881Z,11.82
2022-10-01T04:34:08.501Z,11.18
2022-10-01T04:36:37.452Z,12.52
2022-10-01T04:39:05.279Z,13.57
2022-10-01T04:41:32.431Z,13.40
2022-10-01T04:44:00.427Z,16.13
2022-10-01T04:46:34.801Z,17.95
2022-10-01T04:49:05.952Z,13.27
2022-10-01T04:51:36.378Z,16.95
2022-10-01T04:54:04.048Z,16.63
2022-10-01T04:56:31.160Z,15.80
2022-10-01T04:59:02.005Z,15.32
2022-10-01T05:01:30.134Z,19.73
2022-10-01T05:03:59.267Z,19.00
2022-10-01T05:06:27.221Z,28.60
2022-10-01T05:08:59.359Z,16.15
2022-10-01T05:11:28.669Z,16.65
2022-10-01T05:13:56.756Z,23.65
2022-10-01T05:16:24.529Z,19.23
2022-10-01T05:18:55.103Z,19.15
2022-10-01T05:21:23.275Z,19.63
2022-10-01T05:23:50.283Z,17.75
2022-10-01T05:26:19.661Z,19.30
2022-10-01T05:29:01.886Z,18.08
2022-10-01T05:31:31.994Z,23.50
2022-10-01T05:34:00.208Z,17.65
2022-10-01T05:36:27.271Z,17.90
2022-10-01T05:38:54.756Z,20.33
2022-10-01T05:41:25.601Z,19.30
2022-10-01T05:43:53.120Z,18.20
2022-10-01T05:46:20.373Z,18.48
2022-10-01T05:48:51.632Z,22.92
2022-10-01T05:51:20.887Z,22.35
2022-10-01T05:53:50.591Z,26.25
2022-10-01T05:56:21.702Z,17.55
2022-10-01T05:58:49.615Z,24.98
2022-10-01T06:01:17.387Z,28.23
2022-10-01T06:03:48.990Z,18.55
2022-10-01T06:06:31.591Z,22.13
2022-10-01T06:09:01.945Z,24.83
2022-10-01T06:11:29.060Z,21.92
2022-10-01T06:13:56.125Z,26.20
2022-10-01T06:16:23.490Z,23.40
2022-10-01T06:18:52.169Z,19.85
2022-10-01T06:23:49.463Z,14.95
2022-10-01T06:26:17.174Z,14.93
2022-10-01T06:28:44.369Z,9.75
2022-10-01T06:31:18.929Z,16.80
2022-10-01T06:33:47.813Z,15.50
2022-10-01T06:36:17.485Z,15.63
2022-10-01T06:38:49.454Z,14.40
2022-10-01T06:41:16.742Z,15.90
2022-10-01T06:43:43.693Z,18.48
2022-10-01T06:46:14.327Z,21.70
2022-10-01T06:51:45.432Z,14.18
2022-10-01T06:54:15.105Z,16.52
2022-10-01T06:59:09.031Z,19.48
2022-10-01T07:01:40.483Z,20.02
2022-10-01T07:04:09.783Z,19.13
2022-10-01T07:06:36.802Z,17.10
2022-10-01T07:09:04.330Z,15.98
2022-10-01T07:11:38.809Z,15.05
2022-10-01T07:14:09.938Z,13.38
2022-10-01T07:16:40.222Z,12.73
2022-10-01T07:19:07.707Z,12.25
2022-10-01T07:21:40.816Z,14.52
2022-10-01T07:24:10.919Z,14.07
2022-10-01T07:26:37.978Z,17.50
2022-10-01T07:29:05.028Z,16.10
2022-10-01T07:31:44.450Z,15.80
2022-10-01T07:34:13.689Z,10.52
2022-10-01T07:36:48.327Z,14.30
2022-10-01T07:39:16.952Z,11.40
2022-10-01T07:41:46.369Z,11.00
2022-10-01T07:44:18.927Z,10.63
2022-10-01T07:47:03.482Z,9.82
2022-10-01T07:52:14.815Z,4.53
2022-10-01T07:54:44.795Z,3.28
2022-10-01T07:57:12.941Z,5.57
2022-10-01T07:59:41.500Z,7.82
2022-10-01T08:02:17.421Z,5.25
2022-10-01T08:05:02.994Z,3.45
2022-10-01T08:07:32.035Z,5.82
2022-10-01T08:09:59.048Z,3.55
2022-10-01T08:15:46.208Z,8.57
2022-10-01T08:18:14.156Z,4.28
2022-10-01T08:23:29.554Z,2.72
2022-10-01T08:29:43.490Z,3.60
2022-10-01T08:32:11.580Z,4.97
2022-10-01T08:34:39.043Z,4.90
2022-10-01T08:43:41.056Z,5.70
2022-10-01T08:46:35.381Z,4.18
2022-10-01T08:49:20.996Z,4.28
2022-10-01T08:54:57.381Z,3.33
2022-10-01T08:57:30.802Z,2.58
2022-10-01T09:00:18.741Z,3.40
2022-10-01T09:02:58.479Z,3.38
2022-10-01T09:13:50.248Z,2.97
2022-10-01T09:16:55.128Z,6.35
2022-10-01T09:20:07.883Z,5.25
2022-10-01T09:26:25.857Z,2.20
2022-10-01T09:28:55.722Z,3.33
2022-10-01T09:35:06.974Z,1.88
2022-10-01T09:37:48.784Z,2.75
2022-10-01T09:41:03.214Z,2.72
2022-10-01T09:43:46.003Z,3.03
2022-10-01T09:46:20.318Z,2.67
2022-10-01T09:49:57.719Z,4.32
2022-10-01T09:52:41.648Z,4.78
2022-10-01T09:55:49.291Z,3.60
2022-10-01T10:04:57.770Z,2.30
2022-10-01T10:07:25.799Z,2.28
2022-10-01T10:10:39.723Z,1.33
2022-10-01T10:13:16.851Z,1.67
2022-10-01T10:15:59.417Z,1.73
2022-10-01T10:18:50.136Z,3.35
2022-10-01T10:21:22.922Z,3.10
2022-10-01T10:26:58.909Z,3.05
2022-10-01T10:29:37.617Z,6.95
2022-10-01T10:39:29.384Z,1.75
2022-10-01T10:41:59.954Z,2.10
2022-10-01T10:44:36.292Z,0.90
2022-10-01T10:47:14.920Z,1.90
2022-10-01T10:49:49.184Z,3.50
2022-10-01T10:52:24.623Z,4.00
2022-10-01T10:54:57.610Z,1.85
2022-10-01T10:57:38.691Z,2.67
2022-10-01T11:00:26.742Z,3.65
2022-10-01T11:03:04.410Z,1.42
2022-10-01T11:05:39.699Z,1.88
2022-10-01T11:08:24.112Z,3.45
2022-10-01T11:11:12.643Z,1.70
2022-10-01T11:17:05.112Z,2.53
2022-10-01T11:20:02.872Z,2.65
2022-10-01T11:22:58.188Z,2.47
2022-10-01T11:25:45.777Z,1.13
2022-10-01T11:31:37.898Z,1.27
2022-10-01T11:34:05.379Z,3.67
2022-10-01T11:36:45.278Z,2.50
2022-10-01T11:39:21.038Z,1.75
2022-10-01T11:42:09.444Z,1.30
2022-10-01T11:44:58.583Z,5.80
2022-10-01T11:47:47.994Z,2.70
2022-10-01T11:50:20.745Z,2.35
2022-10-01T11:53:02.854Z,5.10
2022-10-01T11:56:05.527Z,3.05
2022-10-01T11:58:54.781Z,3.70
2022-10-01T12:01:47.283Z,2.67
2022-10-01T12:04:35.257Z,1.98
2022-10-01T12:07:44.172Z,3.45
2022-10-01T12:10:52.605Z,2.75
2022-10-01T12:13:28.059Z,5.30
2022-10-01T12:16:20.268Z,3.00
2022-10-01T12:18:54.732Z,4.25
2022-10-01T12:21:45.202Z,7.45
2022-10-01T12:24:15.945Z,2.75
2022-10-01T12:29:54.928Z,4.88
2022-10-01T12:32:58.754Z,1.65
2022-10-01T12:35:47.624Z,2.90
2022-10-01T12:38:45.423Z,2.92
2022-10-01T12:41:34.631Z,2.15
2022-10-01T12:44:32.524Z,4.70
2022-10-01T12:47:21.904Z,2.83
2022-10-01T12:50:12.104Z,3.53
2022-10-01T12:52:58.940Z,4.60
2022-10-01T12:55:34.399Z,4.53
2022-10-01T12:58:22.092Z,2.88
2022-10-01T13:01:15.738Z,3.45
2022-10-01T13:04:03.365Z,4.50
2022-10-01T13:06:55.728Z,3.70
2022-10-01T13:09:37.956Z,3.60
2022-10-01T13:12:42.916Z,4.80
2022-10-01T13:15:35.379Z,2.10
2022-10-01T13:18:12.607Z,4.90
2022-10-01T13:20:57.457Z,4.68
2022-10-01T13:23:41.607Z,8.45
2022-10-01T13:26:40.081Z,2.83
2022-10-01T13:29:35.319Z,4.15
2022-10-01T13:32:25.856Z,7.32
2022-10-01T13:34:54.095Z,3.97
2022-10-01T13:37:30.197Z,3.83
2022-10-01T13:39:59.652Z,4.72
2022-10-01T13:43:07.217Z,22.33
2022-10-01T13:48:34.865Z,6.32
2022-10-01T13:53:58.357Z,3.67
2022-10-01T13:56:38.049Z,6.60
2022-10-01T13:59:27.847Z,2.72
2022-10-01T14:02:01.418Z,6.65
2022-10-01T14:04:41.167Z,5.05
2022-10-01T14:07:15.558Z,5.47
2022-10-01T14:10:04.060Z,4.00
2022-10-01T14:12:52.891Z,4.47
2022-10-01T14:15:44.805Z,3.92
2022-10-01T14:18:20.289Z,2.63
2022-10-01T14:20:53.804Z,12.95
2022-10-01T14:23:34.145Z,6.43
2022-10-01T14:26:25.084Z,3.25
2022-10-01T14:29:15.039Z,6.63
2022-10-01T14:31:59.461Z,5.75
2022-10-01T14:34:50.072Z,5.03
2022-10-01T14:37:20.023Z,7.68
2022-10-01T14:39:47.792Z,6.47
2022-10-01T14:42:18.875Z,8.52
2022-10-01T14:44:47.541Z,6.63
2022-10-01T14:47:23.804Z,7.97
2022-10-01T14:49:52.003Z,9.35
2022-10-01T14:55:16.271Z,6.50
2022-10-01T14:57:52.171Z,10.35
2022-10-01T15:00:31.409Z,6.75
2022-10-01T15:03:03.678Z,5.55
2022-10-01T15:05:36.236Z,4.55
2022-10-01T15:08:51.335Z,4.65
2022-10-01T15:11:44.712Z,9.80
2022-10-01T15:14:20.508Z,8.80
2022-10-01T15:16:50.734Z,8.95
2022-10-01T15:19:23.229Z,9.75
2022-10-01T15:21:54.308Z,13.40
2022-10-01T15:24:42.028Z,5.68
2022-10-01T15:27:11.767Z,8.95
2022-10-01T15:29:40.394Z,8.45
2022-10-01T15:34:35.388Z,8.60
2022-10-01T15:37:04.327Z,13.23
2022-10-01T15:39:39.872Z,16.65
2022-10-01T15:42:26.603Z,19.63
2022-10-01T15:45:22.963Z,11.25
2022-10-01T15:47:57.242Z,18.10
2022-10-01T15:50:32.921Z,16.55
2022-10-01T15:53:24.841Z,21.58
2022-10-01T15:55:58.144Z,19.45
2022-10-01T15:58:32.447Z,17.33
2022-10-01T16:01:05.762Z,18.40
2022-10-01T16:04:01.421Z,15.15
2022-10-01T16:06:35.570Z,14.30
2022-10-01T16:12:04.329Z,21.15
2022-10-01T16:14:59.589Z,7.97
2022-10-01T16:17:30.462Z,11.40
2022-10-01T16:20:00.715Z,9.95
2022-10-01T16:22:34.942Z,9.63
2022-10-01T16:25:26.804Z,8.77
2022-10-01T16:34:02.972Z,8.15
2022-10-01T16:36:58.223Z,8.70
2022-10-01T16:39:25.515Z,7.68
2022-10-01T16:42:12.136Z,9.93
2022-10-01T16:44:40.861Z,7.88
2022-10-01T16:47:11.428Z,12.35
2022-10-01T16:49:38.476Z,11.05
2022-10-01T16:52:06.641Z,10.40
2022-10-01T16:54:33.783Z,8.52
2022-10-01T16:57:02.611Z,10.98
2022-10-01T16:59:43.767Z,9.93
2022-10-01T17:02:15.185Z,23.23
2022-10-01T17:04:47.516Z,12.50
2022-10-01T17:07:14.663Z,8.27
2022-10-01T17:09:41.757Z,15.40
2022-10-01T17:12:11.360Z,25.92
2022-10-01T17:14:39.344Z,20.75
2022-10-01T17:17:06.295Z,12.82
2022-10-01T17:19:34.883Z,35.17
2022-10-01T17:22:17.103Z,21.80
2022-10-01T17:24:45.061Z,20.95
2022-10-01T17:27:14.262Z,17.00
2022-10-01T17:29:41.926Z,11.18
2022-10-01T17:32:09.655Z,12.70
2022-10-01T17:34:36.841Z,11.00
2022-10-01T17:37:03.794Z,17.55
2022-10-01T17:39:32.910Z,21.40
2022-10-01T17:42:01.474Z,18.63
2022-10-01T17:44:28.843Z,7.15
2022-10-01T17:46:56.109Z,11.15
2022-10-01T17:49:29.775Z,9.18
2022-10-01T17:52:09.652Z,6.63
2022-10-01T17:54:40.664Z,8.77
2022-10-01T17:57:10.940Z,8.68
2022-10-01T17:59:39.403Z,9.40
2022-10-01T18:02:23.595Z,9.35
2022-10-01T18:04:54.507Z,7.95
2022-10-01T18:07:22.812Z,7.03
2022-10-01T18:09:55.756Z,9.65
2022-10-01T18:12:25.502Z,6.28
2022-10-01T18:14:53.037Z,8.07
2022-10-01T18:17:22.500Z,6.57
2022-10-01T18:19:54.042Z,6.97
2022-10-01T18:22:30.922Z,10.38
2022-10-01T18:25:03.789Z,4.82
2022-10-01T18:27:52.156Z,5.82
2022-10-01T18:30:20.317Z,7.25
2022-10-01T18:32:57.144Z,9.75
2022-10-01T18:35:31.962Z,11.55
2022-10-01T18:38:07.555Z,4.68
2022-10-01T18:40:42.398Z,7.65
2022-10-01T18:43:40.982Z,8.02
2022-10-01T18:46:39.070Z,3.80
2022-10-01T18:49:34.376Z,4.88
2022-10-01T18:52:28.298Z,5.28
2022-10-01T18:55:25.608Z,4.80
2022-10-01T18:58:19.457Z,7.85
2022-10-01T19:01:05.764Z,5.97
2022-10-01T19:03:45.495Z,6.13
2022-10-01T19:06:21.736Z,4.97
2022-10-01T19:09:17.680Z,4.72
2022-10-01T19:11:59.963Z,4.10
2022-10-01T19:14:31.997Z,5.28
2022-10-01T19:17:14.271Z,3.20
2022-10-01T19:20:27.734Z,6.07
2022-10-01T19:23:19.720Z,4.00
2022-10-01T19:25:54.228Z,4.68
2022-10-01T19:28:43.154Z,10.02
2022-10-01T19:31:33.846Z,8.50
2022-10-01T19:34:18.238Z,7.90
2022-10-01T19:37:13.662Z,8.65
2022-10-01T19:39:49.918Z,4.80
2022-10-01T19:42:29.448Z,4.10
2022-10-01T19:45:13.196Z,3.78
2022-10-01T19:48:13.427Z,3.15
2022-10-01T19:50:44.666Z,4.55
2022-10-01T19:53:23.132Z,6.40
2022-10-01T19:55:52.983Z,13.52
2022-10-01T19:58:23.941Z,4.90
2022-10-01T20:01:00.651Z,4.35
2022-10-01T20:03:33.909Z,7.28
2022-10-01T20:06:15.048Z,8.35
2022-10-01T20:08:52.724Z,6.70
2022-10-01T20:11:47.045Z,4.93
2022-10-01T20:15:00.558Z,6.95
2022-10-01T20:18:03.089Z,8.68
2022-10-01T20:21:15.586Z,11.05
2022-10-01T20:24:02.713Z,8.10
2022-10-01T20:26:43.043Z,9.27
2022-10-01T20:29:29.298Z,11.77
2022-10-01T20:32:04.712Z,5.05
2022-10-01T20:34:45.582Z,8.98
2022-10-01T20:37:18.684Z,7.28
2022-10-01T20:40:09.156Z,7.25
2022-10-01T20:42:49.647Z,7.53
2022-10-01T20:45:26.312Z,9.95
2022-10-01T20:47:58.890Z,7.22
2022-10-01T20:50:32.397Z,10.85
2022-10-01T20:53:04.180Z,5.85
2022-10-01T20:55:49.192Z,6.85
2022-10-01T20:58:34.206Z,5.95
2022-10-01T21:01:13.017Z,4.93
2022-10-01T21:03:58.252Z,6.70
2022-10-01T21:06:47.675Z,7.43
2022-10-01T21:09:54.470Z,6.88
2022-10-01T21:12:27.149Z,8.05
2022-10-01T21:14:58.217Z,3.83
2022-10-01T21:17:35.283Z,5.57
2022-10-01T21:20:05.789Z,5.90
2022-10-01T21:22:40.585Z,11.10
2022-10-01T21:25:45.433Z,4.82
2022-10-01T21:28:24.709Z,6.30
2022-10-01T21:30:53.148Z,7.07
2022-10-01T21:33:44.394Z,6.20
2022-10-01T21:36:23.277Z,4.32
2022-10-01T21:39:21.376Z,4.70
2022-10-01T21:41:58.924Z,5.90
2022-10-01T21:44:41.331Z,4.45
2022-10-01T21:47:39.999Z,6.22
2022-10-01T21:50:22.417Z,6.20
2022-10-01T21:53:11.583Z,7.22
2022-10-01T21:55:59.055Z,4.57
2022-10-01T21:59:06.267Z,8.75
2022-10-01T22:02:04.978Z,4.95
2022-10-01T22:04:42.604Z,7.50
2022-10-01T22:07:16.961Z,7.65
2022-10-01T22:09:50.380Z,6.88
2022-10-01T22:12:17.681Z,5.97
2022-10-01T22:14:46.110Z,5.80
2022-10-01T22:17:22.279Z,6.88
2022-10-01T22:19:53.988Z,8.18
2022-10-01T22:22:25.898Z,6.70
2022-10-01T22:24:54.905Z,8.18
2022-10-01T22:27:35.884Z,8.23
2022-10-01T22:30:33.690Z,7.78
2022-10-01T22:33:20.411Z,9.82
2022-10-01T22:35:53.352Z,6.35
2022-10-01T22:38:30.879Z,7.72
2022-10-01T22:41:08.400Z,5.32
2022-10-01T22:43:36.526Z,9.13
2022-10-01T22:46:22.172Z,6.55
2022-10-01T22:49:04.782Z,6.97
2022-10-01T22:51:46.739Z,5.20
2022-10-01T22:54:21.867Z,4.43
2022-10-01T22:57:21.483Z,4.10
2022-10-01T22:59:58.628Z,8.80
2022-10-01T23:02:34.850Z,5.38
2022-10-01T23:05:30.268Z,7.40
2022-10-01T23:08:35.974Z,4.35
2022-10-01T23:11:15.461Z,4.53
2022-10-01T23:13:55.411Z,5.22
2022-10-01T23:16:35.239Z,5.10
2022-10-01T23:19:25.553Z,8.55
2022-10-01T23:22:05.366Z,6.80
2022-10-01T23:24:46.293Z,8.68
2022-10-01T23:27:35.932Z,5.95
2022-10-01T23:30:09.869Z,6.75
2022-10-01T23:33:02.282Z,8.27
2022-10-01T23:35:48.173Z,6.25
2022-10-01T23:38:33.421Z,9.50
2022-10-01T23:41:12.511Z,8.30
2022-10-01T23:43:46.911Z,6.85
2022-10-01T23:46:35.488Z,6.68
2022-10-01T23:49:14.658Z,4.68
2022-10-01T23:52:13.436Z,10.02
2022-10-01T23:55:23.244Z,10.02
2022-10-01T23:58:00.929Z,10.35
